SAS63A ESGG-ESSA
Flight info
| Callsign | SAS63A |
|---|---|
| Flight time | 0h 44m |
| Altitude | FL330 |
| Route | LABAN N873 ARS T317 ELTOK |
| Aircraft | A320/M-S/N |
Departure
| Time | 2026-05-06 17:49 |
|---|---|
| Airport | Göteborg Landvetter Airport (ESGG) |
Arrival
| Time | 2026-05-06 18:33 |
|---|---|
| Airport | Stockholm-Arlanda Airport (ESSA) |
| Time | Latitude | Longitude | Altitude | Speed | Heading |
|---|---|---|---|---|---|
| 2026-05-06 17:26 | 57.66890 | 12.29425 | 518 ft | 0 kts | 117° |
| 2026-05-06 17:38 | 57.66890 | 12.29426 | 518 ft | 0 kts | 117° |
| 2026-05-06 17:39 | 57.66890 | 12.29427 | 518 ft | 0 kts | 117° |
| 2026-05-06 17:39 | 57.66890 | 12.29428 | 518 ft | 0 kts | 117° |
| 2026-05-06 17:40 | 57.66891 | 12.29421 | 518 ft | 2 kts | 117° |
| 2026-05-06 17:40 | 57.66895 | 12.29408 | 518 ft | 2 kts | 117° |
| 2026-05-06 17:40 | 57.66914 | 12.29339 | 518 ft | 3 kts | 104° |
| 2026-05-06 17:41 | 57.66910 | 12.29304 | 518 ft | 3 kts | 55° |
| 2026-05-06 17:41 | 57.66900 | 12.29288 | 518 ft | 0 kts | 27° |
| 2026-05-06 17:42 | 57.66916 | 12.29303 | 518 ft | 5 kts | 27° |
| 2026-05-06 17:42 | 57.66962 | 12.29327 | 518 ft | 9 kts | 354° |
| 2026-05-06 17:43 | 57.67004 | 12.29248 | 518 ft | 10 kts | 299° |
| 2026-05-06 17:43 | 57.67046 | 12.29200 | 518 ft | 7 kts | 14° |
| 2026-05-06 17:43 | 57.67107 | 12.29255 | 518 ft | 13 kts | 21° |
| 2026-05-06 17:43 | 57.67197 | 12.29330 | 518 ft | 15 kts | 25° |
| 2026-05-06 17:44 | 57.67291 | 12.29412 | 518 ft | 15 kts | 25° |
| 2026-05-06 17:44 | 57.67388 | 12.29500 | 518 ft | 16 kts | 26° |
| 2026-05-06 17:44 | 57.67490 | 12.29594 | 518 ft | 16 kts | 24° |
| 2026-05-06 17:44 | 57.67508 | 12.29608 | 518 ft | 0 kts | 22° |
| 2026-05-06 17:45 | 57.67508 | 12.29609 | 518 ft | 0 kts | 22° |
| 2026-05-06 17:45 | 57.67509 | 12.29609 | 518 ft | 0 kts | 22° |
| 2026-05-06 17:45 | 57.67514 | 12.29613 | 518 ft | 4 kts | 22° |
| 2026-05-06 17:45 | 57.67532 | 12.29614 | 518 ft | 0 kts | 329° |
| 2026-05-06 17:46 | 57.67533 | 12.29613 | 518 ft | 0 kts | 329° |
| 2026-05-06 17:46 | 57.67553 | 12.29571 | 518 ft | 9 kts | 303° |
| 2026-05-06 17:47 | 57.67587 | 12.29437 | 518 ft | 13 kts | 288° |
| 2026-05-06 17:47 | 57.67590 | 12.29270 | 518 ft | 13 kts | 263° |
| 2026-05-06 17:47 | 57.67548 | 12.29131 | 518 ft | 13 kts | 210° |
| 2026-05-06 17:47 | 57.67465 | 12.29056 | 518 ft | 16 kts | 207° |
| 2026-05-06 17:48 | 57.67167 | 12.28779 | 518 ft | 86 kts | 206° |
| 2026-05-06 17:48 | 57.66438 | 12.28119 | 518 ft | 142 kts | 205° |
| 2026-05-06 17:48 | 57.65448 | 12.27228 | 528 ft | 172 kts | 206° |
| 2026-05-06 17:48 | 57.64408 | 12.26483 | 862 ft | 187 kts | 203° |
| 2026-05-06 17:49 | 57.63110 | 12.25928 | 1248 ft | 198 kts | 185° |
| 2026-05-06 17:49 | 57.61727 | 12.26247 | 1706 ft | 204 kts | 171° |
| 2026-05-06 17:49 | 57.60319 | 12.26785 | 2115 ft | 209 kts | 168° |
| 2026-05-06 17:49 | 57.59002 | 12.27331 | 2487 ft | 212 kts | 167° |
| 2026-05-06 17:50 | 57.57682 | 12.28536 | 2845 ft | 216 kts | 141° |
| 2026-05-06 17:50 | 57.56920 | 12.30895 | 3249 ft | 217 kts | 107° |
| 2026-05-06 17:50 | 57.56938 | 12.33674 | 3693 ft | 217 kts | 79° |
| 2026-05-06 17:50 | 57.57359 | 12.36366 | 4123 ft | 217 kts | 70° |
| 2026-05-06 17:51 | 57.57859 | 12.39007 | 4524 ft | 217 kts | 69° |
| 2026-05-06 17:51 | 57.58330 | 12.41411 | 4850 ft | 218 kts | 69° |
| 2026-05-06 17:51 | 57.59050 | 12.43885 | 4952 ft | 218 kts | 52° |
| 2026-05-06 17:51 | 57.59892 | 12.45540 | 5163 ft | 216 kts | 44° |
| 2026-05-06 17:52 | 57.60978 | 12.47425 | 5416 ft | 216 kts | 43° |
| 2026-05-06 17:52 | 57.62039 | 12.49363 | 5678 ft | 215 kts | 45° |
| 2026-05-06 17:52 | 57.63094 | 12.51379 | 6136 ft | 226 kts | 46° |
| 2026-05-06 17:52 | 57.64223 | 12.53540 | 6595 ft | 239 kts | 46° |
| 2026-05-06 17:53 | 57.65402 | 12.55813 | 7050 ft | 247 kts | 47° |
| 2026-05-06 17:53 | 57.66611 | 12.58136 | 7501 ft | 254 kts | 47° |
| 2026-05-06 17:53 | 57.67853 | 12.60534 | 7953 ft | 260 kts | 48° |
| 2026-05-06 17:53 | 57.69121 | 12.62981 | 8405 ft | 265 kts | 48° |
| 2026-05-06 17:54 | 57.70416 | 12.65480 | 8857 ft | 270 kts | 47° |
| 2026-05-06 17:54 | 57.71723 | 12.68016 | 9306 ft | 274 kts | 47° |
| 2026-05-06 17:54 | 57.73050 | 12.70576 | 9761 ft | 285 kts | 47° |
| 2026-05-06 17:54 | 57.74487 | 12.73352 | 10233 ft | 308 kts | 46° |
| 2026-05-06 17:55 | 57.76023 | 12.76342 | 10699 ft | 331 kts | 46° |
| 2026-05-06 17:55 | 57.77668 | 12.79524 | 11162 ft | 349 kts | 46° |
| 2026-05-06 17:55 | 57.79379 | 12.82832 | 11619 ft | 360 kts | 46° |
| 2026-05-06 17:55 | 57.81143 | 12.86244 | 12074 ft | 367 kts | 45° |
| 2026-05-06 17:56 | 57.82916 | 12.89703 | 12525 ft | 373 kts | 45° |
| 2026-05-06 17:56 | 57.84726 | 12.93224 | 12979 ft | 377 kts | 45° |
| 2026-05-06 17:56 | 57.86555 | 12.96803 | 13433 ft | 381 kts | 44° |
| 2026-05-06 17:56 | 57.88370 | 13.00354 | 13879 ft | 383 kts | 44° |
| 2026-05-06 17:57 | 57.90227 | 13.03979 | 14330 ft | 386 kts | 44° |
| 2026-05-06 17:57 | 57.92083 | 13.07614 | 14779 ft | 389 kts | 44° |
| 2026-05-06 17:57 | 57.93960 | 13.11314 | 15231 ft | 391 kts | 44° |
| 2026-05-06 17:57 | 57.95831 | 13.15028 | 15680 ft | 394 kts | 44° |
| 2026-05-06 17:58 | 57.97722 | 13.18781 | 16131 ft | 397 kts | 43° |
| 2026-05-06 17:58 | 57.99625 | 13.22537 | 16580 ft | 399 kts | 43° |
| 2026-05-06 17:58 | 58.01540 | 13.26336 | 17030 ft | 402 kts | 43° |
| 2026-05-06 17:58 | 58.03446 | 13.30145 | 17477 ft | 405 kts | 43° |
| 2026-05-06 17:59 | 58.05375 | 13.34003 | 17926 ft | 407 kts | 42° |
| 2026-05-06 17:59 | 58.07337 | 13.37902 | 18378 ft | 410 kts | 42° |
| 2026-05-06 17:59 | 58.09302 | 13.41814 | 18828 ft | 413 kts | 42° |
| 2026-05-06 17:59 | 58.11276 | 13.45764 | 19278 ft | 415 kts | 42° |
| 2026-05-06 18:00 | 58.13245 | 13.49731 | 19726 ft | 418 kts | 42° |
| 2026-05-06 18:00 | 58.15246 | 13.53765 | 20178 ft | 421 kts | 41° |
| 2026-05-06 18:00 | 58.17253 | 13.57787 | 20628 ft | 423 kts | 41° |
| 2026-05-06 18:00 | 58.19275 | 13.61845 | 21072 ft | 427 kts | 41° |
| 2026-05-06 18:01 | 58.21325 | 13.65947 | 21521 ft | 433 kts | 41° |
| 2026-05-06 18:01 | 58.23404 | 13.70110 | 21972 ft | 438 kts | 41° |
| 2026-05-06 18:01 | 58.25511 | 13.74344 | 22425 ft | 442 kts | 41° |
| 2026-05-06 18:01 | 58.27614 | 13.78594 | 22874 ft | 446 kts | 41° |
| 2026-05-06 18:02 | 58.29736 | 13.82910 | 23325 ft | 450 kts | 41° |
| 2026-05-06 18:02 | 58.31872 | 13.87286 | 23777 ft | 453 kts | 41° |
| 2026-05-06 18:02 | 58.34008 | 13.91678 | 24227 ft | 455 kts | 40° |
| 2026-05-06 18:02 | 58.36172 | 13.96099 | 24678 ft | 458 kts | 40° |
| 2026-05-06 18:03 | 58.38349 | 14.00542 | 25134 ft | 459 kts | 42° |
| 2026-05-06 18:03 | 58.40505 | 14.04964 | 25580 ft | 459 kts | 40° |
| 2026-05-06 18:03 | 58.42681 | 14.09458 | 26031 ft | 461 kts | 39° |
| 2026-05-06 18:03 | 58.44849 | 14.13920 | 26479 ft | 462 kts | 39° |
| 2026-05-06 18:04 | 58.47038 | 14.18433 | 26931 ft | 463 kts | 39° |
| 2026-05-06 18:04 | 58.49217 | 14.22948 | 27380 ft | 464 kts | 39° |
| 2026-05-06 18:04 | 58.51393 | 14.27480 | 27829 ft | 465 kts | 39° |
| 2026-05-06 18:04 | 58.53576 | 14.32055 | 28279 ft | 466 kts | 39° |
| 2026-05-06 18:05 | 58.55761 | 14.36661 | 28730 ft | 467 kts | 39° |
| 2026-05-06 18:05 | 58.57930 | 14.41263 | 29178 ft | 468 kts | 39° |
| 2026-05-06 18:05 | 58.60114 | 14.45889 | 29580 ft | 471 kts | 40° |
| 2026-05-06 18:05 | 58.62318 | 14.50554 | 30014 ft | 473 kts | 40° |
| 2026-05-06 18:06 | 58.64539 | 14.55249 | 30463 ft | 474 kts | 40° |
| 2026-05-06 18:06 | 58.66749 | 14.59922 | 30911 ft | 475 kts | 40° |
| 2026-05-06 18:06 | 58.68959 | 14.64596 | 31359 ft | 475 kts | 40° |
| 2026-05-06 18:06 | 58.71184 | 14.69303 | 31809 ft | 475 kts | 40° |
| 2026-05-06 18:07 | 58.73400 | 14.73994 | 32257 ft | 474 kts | 40° |
| 2026-05-06 18:07 | 58.75610 | 14.78675 | 32694 ft | 474 kts | 41° |
| 2026-05-06 18:07 | 58.77817 | 14.83341 | 32800 ft | 482 kts | 41° |
| 2026-05-06 18:07 | 58.80115 | 14.88176 | 32537 ft | 499 kts | 41° |
| 2026-05-06 18:08 | 58.82498 | 14.93205 | 32090 ft | 516 kts | 41° |
| 2026-05-06 18:08 | 58.84939 | 14.98371 | 31601 ft | 526 kts | 41° |
| 2026-05-06 18:08 | 58.87417 | 15.03625 | 31105 ft | 532 kts | 41° |
| 2026-05-06 18:08 | 58.89914 | 15.08936 | 30608 ft | 536 kts | 41° |
| 2026-05-06 18:09 | 58.92419 | 15.14272 | 30111 ft | 538 kts | 42° |
| 2026-05-06 18:09 | 58.94924 | 15.19621 | 29614 ft | 538 kts | 42° |
| 2026-05-06 18:09 | 58.97389 | 15.24945 | 29148 ft | 530 kts | 40° |
| 2026-05-06 18:09 | 58.99763 | 15.30172 | 28679 ft | 506 kts | 40° |
| 2026-05-06 18:10 | 59.02024 | 15.35207 | 28174 ft | 486 kts | 40° |
| 2026-05-06 18:10 | 59.04192 | 15.40082 | 27671 ft | 470 kts | 40° |
| 2026-05-06 18:10 | 59.06297 | 15.44795 | 27171 ft | 459 kts | 39° |
| 2026-05-06 18:10 | 59.08371 | 15.49409 | 26668 ft | 449 kts | 39° |
| 2026-05-06 18:11 | 59.10416 | 15.53941 | 26165 ft | 443 kts | 39° |
| 2026-05-06 18:11 | 59.12431 | 15.58392 | 25667 ft | 440 kts | 39° |
| 2026-05-06 18:11 | 59.14468 | 15.62871 | 25164 ft | 439 kts | 39° |
| 2026-05-06 18:11 | 59.16486 | 15.67284 | 24665 ft | 438 kts | 40° |
| 2026-05-06 18:12 | 59.18465 | 15.71631 | 24173 ft | 438 kts | 40° |
| 2026-05-06 18:12 | 59.20486 | 15.76093 | 23672 ft | 439 kts | 40° |
| 2026-05-06 18:12 | 59.22503 | 15.80539 | 23174 ft | 439 kts | 40° |
| 2026-05-06 18:12 | 59.24525 | 15.85003 | 22674 ft | 439 kts | 41° |
| 2026-05-06 18:13 | 59.26531 | 15.89458 | 22175 ft | 438 kts | 41° |
| 2026-05-06 18:13 | 59.28533 | 15.93899 | 21678 ft | 436 kts | 41° |
| 2026-05-06 18:13 | 59.30536 | 15.98338 | 21178 ft | 435 kts | 42° |
| 2026-05-06 18:13 | 59.32522 | 16.02774 | 20680 ft | 434 kts | 42° |
| 2026-05-06 18:14 | 59.34503 | 16.07193 | 20181 ft | 432 kts | 43° |
| 2026-05-06 18:14 | 59.36480 | 16.11588 | 19681 ft | 429 kts | 44° |
| 2026-05-06 18:14 | 59.38441 | 16.15940 | 19184 ft | 428 kts | 44° |
| 2026-05-06 18:14 | 59.40221 | 16.19943 | 18728 ft | 426 kts | 45° |
| 2026-05-06 18:15 | 59.42124 | 16.24345 | 18230 ft | 423 kts | 46° |
| 2026-05-06 18:15 | 59.44008 | 16.28764 | 17731 ft | 421 kts | 47° |
| 2026-05-06 18:15 | 59.45858 | 16.33175 | 17232 ft | 418 kts | 47° |
| 2026-05-06 18:15 | 59.47673 | 16.37534 | 16737 ft | 414 kts | 47° |
| 2026-05-06 18:16 | 59.49484 | 16.41892 | 16238 ft | 411 kts | 47° |
| 2026-05-06 18:16 | 59.51284 | 16.46223 | 15740 ft | 408 kts | 47° |
| 2026-05-06 18:16 | 59.53077 | 16.50533 | 15239 ft | 405 kts | 47° |
| 2026-05-06 18:16 | 59.54847 | 16.54783 | 14741 ft | 401 kts | 47° |
| 2026-05-06 18:17 | 59.56450 | 16.58549 | 14290 ft | 397 kts | 45° |
| 2026-05-06 18:17 | 59.58397 | 16.62350 | 13797 ft | 392 kts | 39° |
| 2026-05-06 18:17 | 59.60443 | 16.65874 | 13305 ft | 388 kts | 36° |
| 2026-05-06 18:17 | 59.62509 | 16.69222 | 12809 ft | 383 kts | 34° |
| 2026-05-06 18:18 | 59.64576 | 16.72476 | 12308 ft | 377 kts | 34° |
| 2026-05-06 18:18 | 59.66620 | 16.75649 | 11807 ft | 372 kts | 34° |
| 2026-05-06 18:18 | 59.68639 | 16.78770 | 11307 ft | 367 kts | 34° |
| 2026-05-06 18:18 | 59.70614 | 16.81861 | 11023 ft | 357 kts | 34° |
| 2026-05-06 18:19 | 59.72551 | 16.84890 | 10970 ft | 356 kts | 34° |
| 2026-05-06 18:19 | 59.74503 | 16.87895 | 10954 ft | 356 kts | 34° |
| 2026-05-06 18:19 | 59.76432 | 16.90880 | 10940 ft | 357 kts | 34° |
| 2026-05-06 18:19 | 59.78390 | 16.93938 | 10686 ft | 358 kts | 34° |
| 2026-05-06 18:20 | 59.80338 | 16.96990 | 10439 ft | 357 kts | 35° |
| 2026-05-06 18:20 | 59.82085 | 17.00432 | 10149 ft | 360 kts | 50° |
| 2026-05-06 18:20 | 59.83218 | 17.04815 | 9858 ft | 355 kts | 66° |
| 2026-05-06 18:20 | 59.83958 | 17.09422 | 9544 ft | 348 kts | 73° |
| 2026-05-06 18:21 | 59.84540 | 17.14034 | 9222 ft | 341 kts | 75° |
| 2026-05-06 18:21 | 59.85032 | 17.18566 | 8895 ft | 334 kts | 78° |
| 2026-05-06 18:21 | 59.85402 | 17.23039 | 8573 ft | 328 kts | 81° |
| 2026-05-06 18:21 | 59.85724 | 17.27481 | 8257 ft | 319 kts | 82° |
| 2026-05-06 18:22 | 59.86019 | 17.31711 | 7957 ft | 305 kts | 82° |
| 2026-05-06 18:22 | 59.86301 | 17.35788 | 7702 ft | 292 kts | 82° |
| 2026-05-06 18:22 | 59.86570 | 17.39638 | 7458 ft | 278 kts | 82° |
| 2026-05-06 18:22 | 59.86828 | 17.43331 | 7211 ft | 268 kts | 81° |
| 2026-05-06 18:23 | 59.87063 | 17.46984 | 6961 ft | 265 kts | 82° |
| 2026-05-06 18:23 | 59.87283 | 17.50578 | 6712 ft | 262 kts | 82° |
| 2026-05-06 18:23 | 59.87501 | 17.54156 | 6410 ft | 260 kts | 82° |
| 2026-05-06 18:23 | 59.87718 | 17.57668 | 6116 ft | 249 kts | 82° |
| 2026-05-06 18:24 | 59.87927 | 17.61022 | 5811 ft | 243 kts | 82° |
| 2026-05-06 18:24 | 59.88140 | 17.64302 | 5515 ft | 238 kts | 82° |
| 2026-05-06 18:24 | 59.88360 | 17.67530 | 5217 ft | 236 kts | 82° |
| 2026-05-06 18:24 | 59.88591 | 17.70720 | 4918 ft | 234 kts | 82° |
| 2026-05-06 18:25 | 59.88837 | 17.73925 | 4617 ft | 233 kts | 82° |
| 2026-05-06 18:25 | 59.89095 | 17.77086 | 4318 ft | 231 kts | 82° |
| 2026-05-06 18:25 | 59.89367 | 17.80208 | 4015 ft | 226 kts | 82° |
| 2026-05-06 18:25 | 59.89642 | 17.83169 | 3716 ft | 212 kts | 82° |
| 2026-05-06 18:26 | 59.89919 | 17.85929 | 3427 ft | 202 kts | 82° |
| 2026-05-06 18:26 | 59.90202 | 17.88621 | 3125 ft | 195 kts | 82° |
| 2026-05-06 18:26 | 59.90460 | 17.91238 | 2813 ft | 190 kts | 86° |
| 2026-05-06 18:26 | 59.90137 | 17.93671 | 2576 ft | 186 kts | 123° |
| 2026-05-06 18:27 | 59.89142 | 17.95142 | 2550 ft | 180 kts | 155° |
| 2026-05-06 18:27 | 59.87989 | 17.95971 | 2512 ft | 176 kts | 162° |
| 2026-05-06 18:27 | 59.86856 | 17.96741 | 2484 ft | 173 kts | 162° |
| 2026-05-06 18:27 | 59.85732 | 17.97514 | 2480 ft | 171 kts | 162° |
| 2026-05-06 18:28 | 59.84621 | 17.98279 | 2480 ft | 170 kts | 162° |
| 2026-05-06 18:28 | 59.83516 | 17.99039 | 2490 ft | 168 kts | 162° |
| 2026-05-06 18:28 | 59.82419 | 17.99785 | 2498 ft | 168 kts | 162° |
| 2026-05-06 18:28 | 59.81321 | 18.00529 | 2499 ft | 167 kts | 162° |
| 2026-05-06 18:29 | 59.80227 | 18.01253 | 2497 ft | 167 kts | 164° |
| 2026-05-06 18:29 | 59.79083 | 18.01205 | 2509 ft | 167 kts | 188° |
| 2026-05-06 18:29 | 59.77966 | 18.00566 | 2518 ft | 167 kts | 193° |
| 2026-05-06 18:29 | 59.76846 | 18.00102 | 2494 ft | 166 kts | 189° |
| 2026-05-06 18:30 | 59.75738 | 17.99740 | 2302 ft | 160 kts | 188° |
| 2026-05-06 18:30 | 59.74667 | 17.99362 | 2069 ft | 155 kts | 188° |
| 2026-05-06 18:30 | 59.73617 | 17.98978 | 1862 ft | 152 kts | 188° |
| 2026-05-06 18:30 | 59.72593 | 17.98614 | 1667 ft | 150 kts | 188° |
| 2026-05-06 18:31 | 59.71574 | 17.98252 | 1473 ft | 148 kts | 188° |
| 2026-05-06 18:31 | 59.70563 | 17.97892 | 1281 ft | 148 kts | 187° |
| 2026-05-06 18:31 | 59.69579 | 17.97543 | 1081 ft | 140 kts | 187° |
| 2026-05-06 18:31 | 59.68635 | 17.97205 | 895 ft | 135 kts | 187° |
| 2026-05-06 18:32 | 59.67722 | 17.96875 | 715 ft | 132 kts | 187° |
| 2026-05-06 18:32 | 59.66833 | 17.96560 | 543 ft | 128 kts | 187° |
| 2026-05-06 18:32 | 59.65968 | 17.96253 | 381 ft | 126 kts | 186° |
| 2026-05-06 18:32 | 59.65118 | 17.95949 | 209 ft | 120 kts | 187° |
| 2026-05-06 18:33 | 59.64384 | 17.95709 | 136 ft | 91 kts | 188° |
| 2026-05-06 18:33 | 59.63853 | 17.95514 | 136 ft | 70 kts | 190° |
| 2026-05-06 18:33 | 59.63420 | 17.95353 | 136 ft | 58 kts | 190° |
| 2026-05-06 18:33 | 59.63107 | 17.95246 | 136 ft | 24 kts | 188° |
| 2026-05-06 18:34 | 59.62977 | 17.95101 | 136 ft | 22 kts | 222° |
| 2026-05-06 18:34 | 59.62917 | 17.94998 | 136 ft | 0 kts | 220° |
| 2026-05-06 18:34 | 59.62915 | 17.94995 | 136 ft | 2 kts | 220° |
| 2026-05-06 18:34 | 59.62869 | 17.94917 | 136 ft | 14 kts | 220° |
| 2026-05-06 18:35 | 59.62866 | 17.94789 | 136 ft | 11 kts | 330° |
| 2026-05-06 18:35 | 59.62948 | 17.94769 | 136 ft | 14 kts | 6° |
| 2026-05-06 18:35 | 59.63051 | 17.94798 | 136 ft | 16 kts | 10° |
| 2026-05-06 18:35 | 59.63167 | 17.94843 | 136 ft | 18 kts | 12° |
| 2026-05-06 18:36 | 59.63297 | 17.94896 | 136 ft | 20 kts | 11° |
| 2026-05-06 18:36 | 59.63440 | 17.94950 | 136 ft | 22 kts | 10° |
| 2026-05-06 18:36 | 59.63595 | 17.95006 | 136 ft | 23 kts | 10° |
| 2026-05-06 18:36 | 59.63762 | 17.95066 | 136 ft | 25 kts | 10° |
| 2026-05-06 18:37 | 59.63939 | 17.95133 | 136 ft | 27 kts | 12° |
| 2026-05-06 18:37 | 59.64062 | 17.95181 | 136 ft | 28 kts | 9° |
| 2026-05-06 18:37 | 59.64323 | 17.95270 | 136 ft | 30 kts | 11° |
| 2026-05-06 18:37 | 59.64530 | 17.95344 | 136 ft | 31 kts | 11° |
| 2026-05-06 18:38 | 59.64745 | 17.95423 | 136 ft | 32 kts | 10° |
| 2026-05-06 18:38 | 59.64963 | 17.95498 | 136 ft | 30 kts | 1° |
| 2026-05-06 18:38 | 59.65164 | 17.95413 | 136 ft | 30 kts | 346° |
| 2026-05-06 18:38 | 59.65374 | 17.95312 | 136 ft | 32 kts | 346° |
| 2026-05-06 18:39 | 59.65592 | 17.95201 | 136 ft | 33 kts | 346° |
| 2026-05-06 18:39 | 59.65750 | 17.95071 | 136 ft | 15 kts | 271° |
| 2026-05-06 18:39 | 59.65726 | 17.94857 | 136 ft | 17 kts | 255° |
| 2026-05-06 18:40 | 59.65661 | 17.94371 | 136 ft | 20 kts | 255° |
| 2026-05-06 18:40 | 59.65627 | 17.94099 | 136 ft | 21 kts | 257° |
| 2026-05-06 18:40 | 59.65591 | 17.93809 | 136 ft | 22 kts | 255° |
| 2026-05-06 18:40 | 59.65553 | 17.93504 | 136 ft | 24 kts | 256° |
| 2026-05-06 18:41 | 59.65519 | 17.93233 | 136 ft | 16 kts | 244° |
| 2026-05-06 18:41 | 59.65459 | 17.93206 | 136 ft | 8 kts | 163° |
| 2026-05-06 18:41 | 59.65401 | 17.93237 | 136 ft | 9 kts | 166° |
| 2026-05-06 18:41 | 59.65337 | 17.93269 | 136 ft | 10 kts | 168° |
| 2026-05-06 18:42 | 59.65292 | 17.93236 | 136 ft | 7 kts | 220° |
| 2026-05-06 18:42 | 59.65276 | 17.93195 | 136 ft | 0 kts | 243° |
| 2026-05-06 18:42 | 59.65276 | 17.93194 | 136 ft | 0 kts | 243° |
| 2026-05-06 18:42 | 59.65276 | 17.93193 | 136 ft | 0 kts | 243° |
| 2026-05-06 18:43 | 59.65275 | 17.93192 | 136 ft | 0 kts | 243° |